Portscatho, United Kingdom
Current Conditions -  °F | °C
As of 10:50 PM on Tuesday 27 Jan 2015 (Local Time) from EGDR Reporting Station
Drizzle Drizzle  
Wind Chill: 40°   Ceiling: 700
Heat Index: 46°   Visibility: 2.1mi
Dew Point: 45°   Wind: 15mph
Humidity: 93%   Direction: 240°WSW
Pressure: 30.21"   Gusts: 26mph
Location:  50.17°N, 4.97°W
Report Text: EGDR 272250Z 24013G23KT 3500 -DZ SCT005 BKN007 OVC010 08/07 Q1023 YLO1
Loading
Personal Weather Stations






























Interactive Weather Map New forecast layout! Learn more

10-Day Weather Forecast

Advertisements
Track Severe Weather on mobile